createdAt,value
2023-02-26T00:01:49.031Z,99629.59
2023-02-26T00:04:17.336Z,99637.22
2023-02-26T00:06:56.847Z,99642.34
2023-02-26T00:09:28.520Z,99639.78
2023-02-26T00:11:57.210Z,99643.13
2023-02-26T00:14:27.412Z,99639.75
2023-02-26T00:17:08.442Z,99641.41
2023-02-26T00:19:37.189Z,99648.16
2023-02-26T00:22:06.436Z,99643.13
2023-02-26T00:24:34.625Z,99645.66
2023-02-26T00:27:02.830Z,99652.44
2023-02-26T00:29:33.405Z,99650.75
2023-02-26T00:32:02.373Z,99649.91
2023-02-26T00:34:31.380Z,99652.44
2023-02-26T00:37:11.208Z,99658.38
2023-02-26T00:39:43.744Z,99657.53
2023-02-26T00:42:13.016Z,99650.78
2023-02-26T00:44:43.591Z,99648.31
2023-02-26T00:47:17.830Z,99655.97
2023-02-26T00:50:02.045Z,99655.19
2023-02-26T00:52:36.373Z,99653.50
2023-02-26T00:55:05.077Z,99653.50
2023-02-26T00:57:33.311Z,99661.97
2023-02-26T01:00:05.921Z,99656.06
2023-02-26T01:02:35.133Z,99660.31
2023-02-26T01:05:04.424Z,99664.53
2023-02-26T01:07:38.975Z,99660.31
2023-02-26T01:10:09.750Z,99660.31
2023-02-26T01:12:38.758Z,99662.84
2023-02-26T01:15:10.225Z,99662.84
2023-02-26T01:17:43.778Z,99660.31
2023-02-26T01:20:17.633Z,99664.56
2023-02-26T01:22:50.127Z,99663.69
2023-02-26T01:25:23.136Z,99677.19
2023-02-26T01:27:51.888Z,99668.81
2023-02-26T01:30:23.212Z,99667.13
2023-02-26T01:32:56.015Z,99673.97
2023-02-26T01:35:40.001Z,99678.25
2023-02-26T01:38:20.624Z,99674.03
2023-02-26T01:41:24.815Z,99679.16
2023-02-26T01:44:01.273Z,99668.22
2023-02-26T01:46:36.782Z,99673.31
2023-02-26T01:49:05.362Z,99674.19
2023-02-26T01:51:49.369Z,99656.47
2023-02-26T01:54:20.674Z,99667.44
2023-02-26T01:56:50.708Z,99669.16
2023-02-26T01:59:24.358Z,99670.03
2023-02-26T02:01:55.758Z,99667.47
2023-02-26T02:04:23.991Z,99671.69
2023-02-26T02:06:52.383Z,99660.72
2023-02-26T02:09:21.312Z,99667.44
2023-02-26T02:12:08.863Z,99662.41
2023-02-26T02:14:48.040Z,99674.22
2023-02-26T02:17:20.978Z,99672.53
2023-02-26T02:20:25.698Z,99671.69
2023-02-26T02:23:02.332Z,99670.81
2023-02-26T02:25:52.163Z,99666.59
2023-02-26T02:28:27.853Z,99671.66
2023-02-26T02:31:06.760Z,99680.91
2023-02-26T02:33:42.504Z,99679.19
2023-02-26T02:36:14.642Z,99676.63
2023-02-26T02:38:47.357Z,99688.44
2023-02-26T02:41:19.291Z,99679.97
2023-02-26T02:43:48.978Z,99679.13
2023-02-26T02:46:21.912Z,99676.56
2023-02-26T02:48:55.969Z,99686.72
2023-02-26T02:51:33.793Z,99685.03
2023-02-26T02:54:06.158Z,99674.03
2023-02-26T02:56:36.944Z,99674.91
2023-02-26T02:59:11.901Z,99674.91
2023-02-26T03:01:41.375Z,99684.22
2023-02-26T03:04:11.414Z,99684.22
2023-02-26T03:06:39.801Z,99684.22
2023-02-26T03:09:09.428Z,99682.53
2023-02-26T03:11:37.764Z,99685.94
2023-02-26T03:14:06.827Z,99685.94
2023-02-26T03:20:11.315Z,99690.16
2023-02-26T03:22:43.808Z,99699.47
2023-02-26T03:25:19.759Z,99696.94
2023-02-26T03:27:51.767Z,99696.13
2023-02-26T03:30:23.885Z,99700.34
2023-02-26T03:32:59.432Z,99700.31
2023-02-26T03:35:32.893Z,99701.16
2023-02-26T03:38:04.421Z,99708.78
2023-02-26T03:40:35.556Z,99706.22
2023-02-26T03:43:07.582Z,99710.47
2023-02-26T03:45:36.645Z,99714.72
2023-02-26T03:48:08.108Z,99719.81
2023-02-26T03:50:38.985Z,99720.69
2023-02-26T03:53:47.096Z,99726.63
2023-02-26T03:56:21.112Z,99722.41
2023-02-26T03:59:06.831Z,99723.25
2023-02-26T04:01:51.792Z,99737.63
2023-02-26T04:04:26.280Z,99736.78
2023-02-26T04:06:55.157Z,99741.84
2023-02-26T04:09:23.321Z,99747.78
2023-02-26T04:11:52.291Z,99738.50
2023-02-26T04:14:20.439Z,99752.84
2023-02-26T04:16:49.457Z,99755.38
2023-02-26T04:19:17.654Z,99765.56
2023-02-26T04:21:47.855Z,99761.34
2023-02-26T04:24:17.336Z,99769.81
2023-02-26T04:26:46.404Z,99769.81
2023-02-26T04:29:15.022Z,99773.19
2023-02-26T04:31:43.223Z,99774.06
2023-02-26T04:34:12.279Z,99775.78
2023-02-26T04:36:40.722Z,99783.41
2023-02-26T04:39:10.642Z,99781.72
2023-02-26T04:41:39.121Z,99777.50
2023-02-26T04:44:07.391Z,99788.50
2023-02-26T04:46:38.076Z,99794.44
2023-02-26T04:49:06.356Z,99791.84
2023-02-26T04:51:34.596Z,99780.88
2023-02-26T04:54:02.864Z,99806.25
2023-02-26T04:56:33.544Z,99799.50
2023-02-26T04:59:02.962Z,99806.25
2023-02-26T05:01:32.365Z,99802.03
2023-02-26T05:04:01.296Z,99802.88
2023-02-26T05:06:29.575Z,99803.72
2023-02-26T05:08:57.666Z,99802.00
2023-02-26T05:11:25.786Z,99815.56
2023-02-26T05:13:55.239Z,99814.72
2023-02-26T05:16:23.638Z,99811.34
2023-02-26T05:18:52.517Z,99815.56
2023-02-26T05:21:21.852Z,99826.56
2023-02-26T05:23:50.160Z,99824.00
2023-02-26T05:26:18.667Z,99825.72
2023-02-26T05:28:46.827Z,99827.44
2023-02-26T05:31:16.422Z,99832.50
2023-02-26T05:33:44.881Z,99838.41
2023-02-26T05:36:13.783Z,99838.41
2023-02-26T05:38:41.911Z,99850.25
2023-02-26T05:41:10.026Z,99840.94
2023-02-26T05:43:39.492Z,99857.03
2023-02-26T05:46:07.595Z,99854.47
2023-02-26T05:48:37.253Z,99854.50
2023-02-26T05:51:05.682Z,99855.34
2023-02-26T05:53:33.937Z,99856.19
2023-02-26T05:56:02.093Z,99865.47
2023-02-26T05:58:31.305Z,99860.44
2023-02-26T06:00:59.962Z,99866.34
2023-02-26T06:03:28.143Z,99862.13
2023-02-26T06:05:57.677Z,99873.13
2023-02-26T06:08:25.903Z,99875.66
2023-02-26T06:10:54.087Z,99880.72
2023-02-26T06:13:22.788Z,99879.88
2023-02-26T06:15:52.209Z,99884.13
2023-02-26T06:18:20.409Z,99885.81
2023-02-26T06:20:48.559Z,99893.41
2023-02-26T06:23:18.036Z,99897.63
2023-02-26T06:25:46.297Z,99901.03
2023-02-26T06:28:14.638Z,99910.31
2023-02-26T06:30:42.814Z,99915.38
2023-02-26T06:33:10.926Z,99922.97
2023-02-26T06:35:39.220Z,99919.63
2023-02-26T06:38:07.303Z,99921.31
2023-02-26T06:40:36.961Z,99936.50
2023-02-26T06:43:05.173Z,99930.56
2023-02-26T06:45:33.357Z,99933.13
2023-02-26T06:48:01.503Z,99946.66
2023-02-26T06:50:29.680Z,99948.34
2023-02-26T06:52:57.801Z,99964.38
2023-02-26T06:55:26.893Z,99976.22
2023-02-26T06:57:56.617Z,99978.72
2023-02-26T07:00:25.372Z,99984.66
2023-02-26T07:02:53.846Z,99986.34
2023-02-26T07:05:21.964Z,99997.31
2023-02-26T07:07:50.140Z,99989.72
2023-02-26T07:10:21.429Z,99988.84
2023-02-26T07:12:49.531Z,99985.47
2023-02-26T07:15:19.203Z,99982.91
2023-02-26T07:17:47.333Z,99987.97
2023-02-26T07:20:15.486Z,99991.28
2023-02-26T07:22:43.632Z,99992.91
2023-02-26T07:25:12.198Z,99997.94
2023-02-26T07:27:42.207Z,99997.91
2023-02-26T07:30:13.432Z,99997.03
2023-02-26T07:32:43.068Z,100006.31
2023-02-26T07:35:11.382Z,100011.38
2023-02-26T07:37:39.672Z,100019.88
2023-02-26T07:40:09.662Z,100020.69
2023-02-26T07:42:37.879Z,100023.25
2023-02-26T07:45:08.047Z,100021.53
2023-02-26T07:47:36.245Z,100027.47
2023-02-26T07:50:07.025Z,100030.81
2023-02-26T07:52:35.215Z,100023.16
2023-02-26T07:55:03.366Z,100036.69
2023-02-26T07:57:31.457Z,100039.19
2023-02-26T07:59:59.599Z,100037.47
2023-02-26T08:02:27.735Z,100041.25
2023-02-26T08:04:55.864Z,100033.69
2023-02-26T08:07:25.575Z,100039.69
2023-02-26T08:09:53.877Z,100024.19
2023-02-26T08:12:22.139Z,100028.34
2023-02-26T08:14:50.583Z,100022.81
2023-02-26T08:17:18.682Z,100025.06
2023-02-26T08:19:46.789Z,100019.38
2023-02-26T08:22:15.199Z,100015.56
2023-02-26T08:24:44.745Z,100018.72
2023-02-26T08:27:13.726Z,100011.28
2023-02-26T08:29:42.719Z,100019.44
2023-02-26T08:32:11.087Z,99999.38
2023-02-26T08:34:39.309Z,100006.59
2023-02-26T08:37:09.282Z,99998.88
2023-02-26T08:39:38.853Z,99998.16
2023-02-26T08:42:09.222Z,100003.28
2023-02-26T08:44:37.437Z,100012.31
2023-02-26T08:47:05.717Z,100013.66
2023-02-26T08:49:33.874Z,100016.09
2023-02-26T08:52:02.006Z,100027.16
2023-02-26T08:54:30.207Z,100039.59
2023-02-26T08:56:58.337Z,100035.28
2023-02-26T08:59:27.866Z,100033.31
2023-02-26T09:01:56.133Z,100036.59
2023-02-26T09:04:24.406Z,100047.03
2023-02-26T09:06:52.784Z,100061.59
2023-02-26T09:09:21.198Z,100056.34
2023-02-26T09:11:49.310Z,100066.97
2023-02-26T09:14:17.715Z,100059.19
2023-02-26T09:16:48.885Z,100077.13
2023-02-26T09:19:18.166Z,100068.63
2023-02-26T09:21:46.386Z,100087.09
2023-02-26T09:24:14.798Z,100083.34
2023-02-26T09:26:43.006Z,100080.66
2023-02-26T09:29:11.519Z,100086.06
2023-02-26T09:31:39.861Z,100091.28
2023-02-26T09:34:11.413Z,100098.16
2023-02-26T09:36:39.733Z,100081.97
2023-02-26T09:39:08.637Z,100088.81
2023-02-26T09:41:40.715Z,100092.94
2023-02-26T09:44:19.534Z,100092.41
2023-02-26T09:46:55.292Z,100092.34
2023-02-26T09:49:50.869Z,100091.84
2023-02-26T09:52:25.111Z,100090.22
2023-02-26T09:54:55.081Z,100090.78
2023-02-26T09:57:33.151Z,100092.91
2023-02-26T10:00:01.326Z,100103.28
2023-02-26T10:02:38.488Z,100086.34
2023-02-26T10:05:19.397Z,100098.19
2023-02-26T10:07:53.589Z,100105.78
2023-02-26T10:10:30.341Z,100114.69
2023-02-26T10:13:00.431Z,100105.78
2023-02-26T10:15:31.275Z,100118.16
2023-02-26T10:18:06.185Z,100116.66
2023-02-26T10:20:44.986Z,100115.91
2023-02-26T10:23:20.676Z,100120.75
2023-02-26T10:25:53.395Z,100133.19
2023-02-26T10:28:36.475Z,100128.13
2023-02-26T10:31:08.490Z,100122.78
2023-02-26T10:33:40.252Z,100141.56
2023-02-26T10:36:18.301Z,100129.75
2023-02-26T10:38:48.811Z,100126.94
2023-02-26T10:41:19.227Z,100144.00
2023-02-26T10:43:53.372Z,100144.13
2023-02-26T10:46:30.961Z,100152.72
2023-02-26T10:49:28.597Z,100157.19
2023-02-26T10:51:58.509Z,100146.31
2023-02-26T10:54:30.793Z,100150.69
2023-02-26T10:56:59.071Z,100150.34
2023-02-26T10:59:27.253Z,100144.56
2023-02-26T11:01:55.394Z,100136.25
2023-02-26T11:04:26.084Z,100131.38
2023-02-26T11:06:56.276Z,100124.84
2023-02-26T11:09:27.847Z,100125.03
2023-02-26T11:11:58.410Z,100142.53
2023-02-26T11:14:28.748Z,100138.88
2023-02-26T11:16:59.783Z,100131.00
2023-02-26T11:19:32.366Z,100125.06
2023-02-26T11:22:01.063Z,100134.69
2023-02-26T11:24:32.910Z,100132.59
2023-02-26T11:27:04.383Z,100133.13
2023-02-26T11:29:38.415Z,100126.81
2023-02-26T11:32:07.129Z,100135.66
2023-02-26T11:34:36.512Z,100144.53
2023-02-26T11:37:04.709Z,100144.09
2023-02-26T11:39:37.263Z,100143.53
2023-02-26T11:42:05.821Z,100142.53
2023-02-26T11:44:37.713Z,100152.91
2023-02-26T11:47:09.237Z,100152.97
2023-02-26T11:49:37.433Z,100158.47
2023-02-26T11:52:24.172Z,100148.97
2023-02-26T11:54:58.215Z,100159.28
2023-02-26T11:57:29.034Z,100149.44
2023-02-26T11:59:59.755Z,100155.28
2023-02-26T12:02:32.601Z,100155.84
2023-02-26T12:05:02.960Z,100160.31
2023-02-26T12:07:31.353Z,100162.69
2023-02-26T12:10:00.903Z,100158.97
2023-02-26T12:12:45.389Z,100166.69
2023-02-26T12:15:22.622Z,100154.84
2023-02-26T12:18:05.513Z,100159.66
2023-02-26T12:20:36.558Z,100156.44
2023-02-26T12:23:22.625Z,100158.69
2023-02-26T12:26:00.446Z,100150.44
2023-02-26T12:28:49.014Z,100140.44
2023-02-26T12:32:08.802Z,100144.31
2023-02-26T12:37:36.928Z,100140.75
2023-02-26T12:40:16.717Z,100140.47
2023-02-26T12:42:53.022Z,100133.81
2023-02-26T12:45:44.418Z,100143.28
2023-02-26T12:48:42.775Z,100138.59
2023-02-26T12:51:20.214Z,100143.81
2023-02-26T12:53:59.234Z,100143.91
2023-02-26T12:57:17.179Z,100140.16
2023-02-26T13:00:23.499Z,100151.13
2023-02-26T13:03:34.117Z,100153.66
2023-02-26T13:06:28.836Z,100145.81
2023-02-26T13:09:02.584Z,100135.59
2023-02-26T13:11:44.647Z,100140.31
2023-02-26T13:14:27.025Z,100138.22
2023-02-26T13:17:02.306Z,100156.31
2023-02-26T13:19:37.502Z,100147.16
2023-02-26T13:22:09.815Z,100155.88
2023-02-26T13:24:41.131Z,100152.16
2023-02-26T13:27:09.790Z,100145.19
2023-02-26T13:29:41.738Z,100155.50
2023-02-26T13:32:13.928Z,100154.69
2023-02-26T13:34:44.806Z,100162.47
2023-02-26T13:37:22.873Z,100161.31
2023-02-26T13:40:17.343Z,100170.91
2023-02-26T13:42:49.268Z,100169.13
2023-02-26T13:45:33.068Z,100174.72
2023-02-26T13:48:11.546Z,100172.66
2023-02-26T13:50:58.777Z,100186.28
2023-02-26T13:53:52.754Z,100189.84
2023-02-26T13:56:42.848Z,100192.22
2023-02-26T13:59:31.489Z,100196.16
2023-02-26T14:02:02.599Z,100199.91
2023-02-26T14:04:32.772Z,100197.63
2023-02-26T14:07:01.277Z,100198.84
2023-02-26T14:09:55.299Z,100208.63
2023-02-26T14:12:36.900Z,100206.63
2023-02-26T14:15:40.325Z,100213.09
2023-02-26T14:18:22.068Z,100210.88
2023-02-26T14:20:52.290Z,100221.97
2023-02-26T14:23:36.457Z,100220.94
2023-02-26T14:26:18.389Z,100222.44
2023-02-26T14:29:08.087Z,100223.13
2023-02-26T14:31:56.370Z,100230.84
2023-02-26T14:34:25.480Z,100228.66
2023-02-26T14:36:56.180Z,100232.34
2023-02-26T14:39:33.467Z,100247.00
2023-02-26T14:42:04.684Z,100249.00
2023-02-26T14:44:37.859Z,100239.84
2023-02-26T14:47:06.202Z,100246.72
2023-02-26T14:49:37.389Z,100236.56
2023-02-26T14:52:36.198Z,100234.72
2023-02-26T14:55:19.931Z,100239.91
2023-02-26T14:57:54.468Z,100243.47
2023-02-26T15:00:31.686Z,100231.75
2023-02-26T15:03:31.098Z,100238.66
2023-02-26T15:06:14.158Z,100243.97
2023-02-26T15:08:56.831Z,100240.69
2023-02-26T15:11:38.656Z,100249.09
2023-02-26T15:14:27.812Z,100240.97
2023-02-26T15:17:06.010Z,100256.56
2023-02-26T15:19:45.777Z,100247.50
2023-02-26T15:22:26.644Z,100251.38
2023-02-26T15:24:56.133Z,100249.47
2023-02-26T15:27:24.254Z,100247.66
2023-02-26T15:29:53.522Z,100259.44
2023-02-26T15:32:26.712Z,100257.50
2023-02-26T15:35:01.249Z,100259.31
2023-02-26T15:37:33.436Z,100258.69
2023-02-26T15:40:05.557Z,100262.34
2023-02-26T15:42:38.351Z,100266.00
2023-02-26T15:45:11.012Z,100270.09
2023-02-26T15:47:39.158Z,100269.13
2023-02-26T15:50:08.439Z,100271.63
2023-02-26T15:52:36.674Z,100267.31
2023-02-26T15:55:07.946Z,100276.69
2023-02-26T15:57:36.710Z,100275.78
2023-02-26T16:00:10.424Z,100268.16
2023-02-26T16:02:42.666Z,100272.44
2023-02-26T16:05:13.188Z,100264.06
2023-02-26T16:07:41.463Z,100274.41
2023-02-26T16:10:18.185Z,100283.28
2023-02-26T16:12:49.247Z,100280.19
2023-02-26T16:15:19.936Z,100269.56
2023-02-26T16:17:50.779Z,100281.66
2023-02-26T16:20:20.784Z,100277.50
2023-02-26T16:22:51.190Z,100281.69
2023-02-26T16:25:25.430Z,100292.63
2023-02-26T16:27:57.856Z,100286.59
2023-02-26T16:30:30.250Z,100289.16
2023-02-26T16:32:58.399Z,100286.31
2023-02-26T16:35:30.699Z,100285.50
2023-02-26T16:37:59.027Z,100289.81
2023-02-26T16:40:29.786Z,100301.31
2023-02-26T16:43:03.185Z,100306.97
2023-02-26T16:45:50.806Z,100304.09
2023-02-26T16:48:24.978Z,100318.13
2023-02-26T16:51:00.088Z,100326.19
2023-02-26T16:53:34.820Z,100328.19
2023-02-26T16:56:04.887Z,100336.97
2023-02-26T16:58:33.044Z,100333.75
2023-02-26T17:01:09.333Z,100342.41
2023-02-26T17:03:38.489Z,100349.34
2023-02-26T17:06:09.214Z,100350.31
2023-02-26T17:08:45.082Z,100347.78
2023-02-26T17:11:22.402Z,100360.63
2023-02-26T17:14:11.273Z,100360.66
2023-02-26T17:16:39.492Z,100372.66
2023-02-26T17:19:09.453Z,100370.25
2023-02-26T17:21:38.903Z,100371.22
2023-02-26T17:24:07.705Z,100380.59
2023-02-26T17:26:37.160Z,100382.34
2023-02-26T17:29:05.376Z,100388.44
2023-02-26T17:31:33.538Z,100386.00
2023-02-26T17:34:01.735Z,100399.63
2023-02-26T17:36:30.643Z,100391.19
2023-02-26T17:38:58.805Z,100395.50
2023-02-26T17:41:28.502Z,100410.84
2023-02-26T17:43:58.212Z,100410.06
2023-02-26T17:46:26.509Z,100428.81
2023-02-26T17:48:55.011Z,100424.59
2023-02-26T17:51:23.384Z,100428.84
2023-02-26T17:53:51.634Z,100438.28
2023-02-26T17:56:26.871Z,100430.72
2023-02-26T17:58:55.489Z,100436.66
2023-02-26T18:01:26.661Z,100439.31
2023-02-26T18:03:55.132Z,100433.44
2023-02-26T18:06:23.584Z,100435.16
2023-02-26T18:08:52.324Z,100449.63
2023-02-26T18:11:23.162Z,100442.03
2023-02-26T18:13:51.418Z,100456.56
2023-02-26T18:16:22.391Z,100449.78
2023-02-26T18:18:52.134Z,100455.78
2023-02-26T18:21:20.542Z,100458.41
2023-02-26T18:23:48.745Z,100463.56
2023-02-26T18:26:16.956Z,100459.34
2023-02-26T18:28:45.244Z,100467.00
2023-02-26T18:31:13.761Z,100467.84
2023-02-26T18:33:44.359Z,100472.09
2023-02-26T18:36:17.517Z,100480.63
2023-02-26T18:38:45.795Z,100484.03
2023-02-26T18:41:13.981Z,100486.63
2023-02-26T18:43:42.776Z,100490.03
2023-02-26T18:46:10.940Z,100491.75
2023-02-26T18:48:39.100Z,100490.94
2023-02-26T18:51:07.834Z,100494.41
2023-02-26T18:53:37.546Z,100496.13
2023-02-26T18:56:06.443Z,100499.56
2023-02-26T18:58:34.568Z,100503.84
2023-02-26T19:01:04.724Z,100497.91
2023-02-26T19:03:33.068Z,100507.34
2023-02-26T19:06:03.104Z,100505.69
2023-02-26T19:08:31.323Z,100515.91
2023-02-26T19:11:00.824Z,100520.19
2023-02-26T19:13:29.076Z,100521.09
2023-02-26T19:15:57.495Z,100526.19
2023-02-26T19:18:25.734Z,100523.66
2023-02-26T19:20:53.863Z,100525.41
2023-02-26T19:23:21.964Z,100526.25
2023-02-26T19:25:51.585Z,100536.50
2023-02-26T19:28:21.045Z,100531.41
2023-02-26T19:30:49.306Z,100536.53
2023-02-26T19:33:20.374Z,100540.78
2023-02-26T19:35:48.556Z,100539.94
2023-02-26T19:38:16.941Z,100544.22
2023-02-26T19:40:45.402Z,100544.19
2023-02-26T19:43:13.492Z,100551.00
2023-02-26T19:45:42.931Z,100543.38
2023-02-26T19:48:11.107Z,100556.97
2023-02-26T19:50:39.221Z,100551.88
2023-02-26T19:53:07.346Z,100554.41
2023-02-26T19:55:35.447Z,100550.19
2023-02-26T19:58:03.579Z,100551.03
2023-02-26T20:00:31.828Z,100556.13
2023-02-26T20:03:01.469Z,100550.22
2023-02-26T20:05:29.823Z,100556.97
2023-02-26T20:07:58.350Z,100552.75
2023-02-26T20:10:26.794Z,100561.25
2023-02-26T20:12:56.011Z,100562.09
2023-02-26T20:15:24.133Z,100566.31
2023-02-26T20:17:52.318Z,100568.88
2023-02-26T20:20:22.963Z,100568.00
2023-02-26T20:22:51.190Z,100568.84
2023-02-26T20:25:20.337Z,100569.72
2023-02-26T20:27:48.452Z,100573.09
2023-02-26T20:30:16.847Z,100579.03
2023-02-26T20:32:45.184Z,100579.84
2023-02-26T20:35:13.522Z,100578.16
2023-02-26T20:37:43.011Z,100597.66
2023-02-26T20:40:12.900Z,100594.28
2023-02-26T20:42:41.038Z,100590.00
2023-02-26T20:45:09.768Z,100593.38
2023-02-26T20:47:37.912Z,100595.09
2023-02-26T20:50:07.509Z,100589.16
2023-02-26T20:52:35.570Z,100597.66
2023-02-26T20:55:05.903Z,100596.78
2023-02-26T20:57:35.353Z,100596.75
2023-02-26T21:00:10.152Z,100593.38
2023-02-26T21:02:38.546Z,100598.47
2023-02-26T21:05:07.868Z,100596.75
2023-02-26T21:07:36.086Z,100591.63
2023-02-26T21:10:06.654Z,100599.28
2023-02-26T21:12:35.543Z,100600.13
2023-02-26T21:15:03.811Z,100601.81
2023-02-26T21:17:32.814Z,100598.44
2023-02-26T21:20:00.980Z,100598.44
2023-02-26T21:22:29.098Z,100602.69
2023-02-26T21:24:57.202Z,100606.91
2023-02-26T21:27:26.752Z,100605.22
2023-02-26T21:29:54.844Z,100608.59
2023-02-26T21:32:22.974Z,100611.13
2023-02-26T21:34:51.117Z,100619.63
2023-02-26T21:37:19.215Z,100615.38
2023-02-26T21:39:48.151Z,100616.22
2023-02-26T21:42:16.303Z,100627.25
2023-02-26T21:44:47.050Z,100620.47
2023-02-26T21:47:16.703Z,100619.63
2023-02-26T21:49:44.875Z,100622.16
2023-02-26T21:52:13.216Z,100619.59
2023-02-26T21:54:41.411Z,100617.94
2023-02-26T21:57:09.655Z,100616.22
2023-02-26T21:59:37.916Z,100616.19
2023-02-26T22:02:07.606Z,100627.19
2023-02-26T22:04:36.574Z,100619.56
2023-02-26T22:07:04.723Z,100622.97
2023-02-26T22:09:32.840Z,100620.41
2023-02-26T22:12:00.952Z,100624.66
2023-02-26T22:14:29.268Z,100619.53
2023-02-26T22:16:57.481Z,100617.00
2023-02-26T22:19:27.390Z,100615.31
2023-02-26T22:21:55.540Z,100618.69
2023-02-26T22:24:23.807Z,100622.94
2023-02-26T22:26:51.983Z,100620.38
2023-02-26T22:29:20.296Z,100619.50
2023-02-26T22:31:48.513Z,100612.75
2023-02-26T22:34:16.975Z,100616.97
2023-02-26T22:36:46.710Z,100616.94
2023-02-26T22:39:14.848Z,100622.88
2023-02-26T22:41:43.111Z,100624.56
2023-02-26T22:44:11.844Z,100620.34
2023-02-26T22:46:39.955Z,100622.88
2023-02-26T22:49:08.141Z,100630.50
2023-02-26T22:51:36.324Z,100623.69
2023-02-26T22:54:06.277Z,100629.59
2023-02-26T22:56:34.458Z,100619.44
2023-02-26T22:59:02.733Z,100618.56
2023-02-26T23:01:30.962Z,100616.88
2023-02-26T23:03:59.611Z,100621.09
2023-02-26T23:06:27.951Z,100621.09
2023-02-26T23:08:56.091Z,100621.94
2023-02-26T23:11:25.946Z,100624.50
2023-02-26T23:13:54.232Z,100632.94
2023-02-26T23:16:22.409Z,100621.91
2023-02-26T23:18:50.504Z,100629.50
2023-02-26T23:21:18.610Z,100621.88
2023-02-26T23:23:46.732Z,100620.19
2023-02-26T23:26:14.890Z,100623.59
2023-02-26T23:28:44.372Z,100629.50
2023-02-26T23:31:12.663Z,100613.34
2023-02-26T23:33:40.895Z,100627.78
2023-02-26T23:36:10.118Z,100628.63
2023-02-26T23:38:38.489Z,100627.78
2023-02-26T23:41:06.754Z,100632.84
2023-02-26T23:43:34.946Z,100630.31
2023-02-26T23:46:05.493Z,100637.94
2023-02-26T23:48:33.670Z,100630.28
2023-02-26T23:51:01.782Z,100630.28
2023-02-26T23:53:29.959Z,100634.53
2023-02-26T23:55:58.885Z,100626.91
2023-02-26T23:58:27.509Z,100635.38
